Araguari, Brazil
Current Conditions -  °F | °C
As of 7:00 AM on Sunday 25 Jan 2015 (Local Time) from SBUL Reporting Station
Broken Clouds Broken Clouds  
Wind Chill: 68°   Ceiling: 1000
Heat Index: 68°   Visibility: 6mi
Dew Point: 63°   Wind: 10mph
Humidity: 83%   Direction: 50°NE
Pressure: 30.06"   Gusts: NA
Location:  18.64°S, 48.2°W
Report Text: SBUL 250900Z 05009KT 9999 FEW008 BKN010 20/17 Q1018
Loading
Personal Weather Stations






























Interactive Weather Map New forecast layout! Learn more

10-Day Weather Forecast

Advertisements
Track Severe Weather on mobile